Time;durP1;ratioP1;P1;durP2;ratioP2;P2;SDS_P1;SDS_P2;PMS_P1;PMS_P2;Temp;Humidity;BMP_temperature;BMP_pressure;BME280_temperature;BME280_humidity;BME280_pressure;Samples;Min_cycle;Max_cycle;Signal;HPM_P1;HPM_P2
2023/01/23 00:01:25;;;;;;;19.90;12.13;;;6.50;47.80;;;;;;5035828;28;20530;-48
2023/01/23 00:03:53;;;;;;;23.67;12.77;;;6.50;47.90;;;;;;5035839;28;20247;-48
2023/01/23 00:06:18;;;;;;;19.55;12.13;;;6.50;48.00;;;;;;5035357;28;20368;-48
2023/01/23 00:08:45;;;;;;;20.07;11.60;;;6.50;47.90;;;;;;5035569;28;20256;-48
2023/01/23 00:11:18;;;;;;;17.50;12.43;;;6.50;47.80;;;;;;5035658;28;20166;-48
2023/01/23 00:13:43;;;;;;;22.35;13.35;;;6.40;47.80;;;;;;5035549;28;20214;-48
2023/01/23 00:16:14;;;;;;;18.37;10.50;;;6.50;48.00;;;;;;5035332;28;20282;-48
2023/01/23 00:18:40;;;;;;;23.55;13.27;;;6.50;48.60;;;;;;5035530;28;20393;-48
2023/01/23 00:21:08;;;;;;;18.23;10.60;;;6.40;47.90;;;;;;5035416;28;20533;-48
2023/01/23 00:23:34;;;;;;;18.15;11.02;;;6.40;48.00;;;;;;5035273;28;20405;-48
2023/01/23 00:26:09;;;;;;;21.25;11.63;;;6.40;48.00;;;;;;5035071;28;20198;-48
2023/01/23 00:28:35;;;;;;;21.60;11.50;;;6.40;48.70;;;;;;5035289;28;20540;-49
2023/01/23 00:31:03;;;;;;;19.50;12.43;;;6.40;48.70;;;;;;5034003;28;20178;-48
2023/01/23 00:33:29;;;;;;;17.90;12.32;;;6.40;48.10;;;;;;5035250;28;20454;-48
2023/01/23 00:35:55;;;;;;;25.77;13.63;;;6.40;48.10;;;;;;5034865;28;20609;-48
2023/01/23 00:38:20;;;;;;;22.80;12.73;;;6.40;48.10;;;;;;5035127;28;20171;-48
2023/01/23 00:40:46;;;;;;;23.33;13.20;;;6.40;48.00;;;;;;5035076;28;20657;-48
2023/01/23 00:43:12;;;;;;;27.27;13.83;;;6.40;48.10;;;;;;5035095;28;20695;-48
2023/01/23 00:45:38;;;;;;;25.77;13.73;;;6.40;48.20;;;;;;5034771;28;20221;-48
2023/01/23 00:48:03;;;;;;;23.33;13.80;;;6.40;48.10;;;;;;5034995;28;20658;-48
2023/01/23 00:50:29;;;;;;;23.50;12.37;;;6.40;48.20;;;;;;5034949;28;20173;-48
2023/01/23 00:52:55;;;;;;;24.90;13.53;;;6.50;48.30;;;;;;5034811;28;20763;-48
2023/01/23 00:55:21;;;;;;;21.93;12.37;;;6.50;48.10;;;;;;5034497;28;20206;-48
2023/01/23 00:57:46;;;;;;;21.47;11.87;;;6.50;48.20;;;;;;5034809;28;20166;-48
2023/01/23 01:00:12;;;;;;;19.27;12.00;;;6.50;48.90;;;;;;5034766;28;20170;-49
2023/01/23 01:02:38;;;;;;;18.98;12.40;;;6.50;48.20;;;;;;5034722;28;20170;-48
2023/01/23 01:05:04;;;;;;;25.70;13.57;;;6.50;48.30;;;;;;5034216;28;20692;-48
2023/01/23 01:07:30;;;;;;;19.48;12.07;;;6.50;48.20;;;;;;5034532;28;20505;-48
2023/01/23 01:09:56;;;;;;;25.27;14.60;;;6.50;48.20;;;;;;5034306;28;20229;-48
2023/01/23 01:12:21;;;;;;;20.57;13.37;;;6.50;48.20;;;;;;5033260;28;20213;-48
2023/01/23 01:14:47;;;;;;;23.03;13.20;;;6.50;48.20;;;;;;5034115;28;20200;-48
2023/01/23 01:17:13;;;;;;;24.73;13.00;;;6.50;48.20;;;;;;5034513;28;20173;-49
2023/01/23 01:19:38;;;;;;;19.13;12.30;;;6.50;48.20;;;;;;5034359;28;20170;-48
2023/01/23 01:22:04;;;;;;;19.00;12.80;;;6.50;48.10;;;;;;5034339;28;20174;-48
2023/01/23 01:24:30;;;;;;;20.83;13.40;;;6.50;48.10;;;;;;5034101;28;20178;-49
2023/01/23 01:26:55;;;;;;;20.37;12.30;;;6.50;48.10;;;;;;5034159;28;20225;-49
2023/01/23 01:29:22;;;;;;;24.60;13.50;;;6.50;48.20;;;;;;5034273;28;20162;-48
2023/01/23 01:31:47;;;;;;;19.35;12.88;;;6.50;48.10;;;;;;5034433;28;20508;-48
2023/01/23 01:34:13;;;;;;;22.03;13.00;;;6.50;48.10;;;;;;5033882;28;20210;-48
2023/01/23 01:36:39;;;;;;;25.47;14.37;;;6.50;48.10;;;;;;5033863;28;20232;-48
2023/01/23 01:39:05;;;;;;;22.90;12.07;;;6.50;48.10;;;;;;5033998;28;20483;-48
2023/01/23 01:41:30;;;;;;;20.00;12.10;;;6.60;48.10;;;;;;5033994;28;20403;-48
2023/01/23 01:43:58;;;;;;;22.70;13.70;;;6.60;48.10;;;;;;5033948;28;20411;-48
2023/01/23 01:46:24;;;;;;;18.80;11.40;;;6.60;48.00;;;;;;5033721;28;20829;-48
2023/01/23 01:49:07;;;;;;;20.10;11.77;;;6.60;48.80;;;;;;5033944;28;20201;-48
2023/01/23 01:51:32;;;;;;;19.05;12.10;;;6.60;48.00;;;;;;5033868;28;20174;-48
2023/01/23 01:54:23;;;;;;;22.00;12.40;;;6.60;48.00;;;;;;5033606;28;20194;-48
2023/01/23 01:57:01;;;;;;;23.48;13.02;;;6.60;48.00;;;;;;5033636;28;20596;-49
2023/01/23 01:59:34;;;;;;;23.48;12.38;;;6.60;48.00;;;;;;5033647;28;20169;-48
2023/01/23 02:02:09;;;;;;;24.00;13.45;;;6.60;48.00;;;;;;5033846;28;20193;-48
2023/01/23 02:04:39;;;;;;;17.48;12.80;;;6.60;48.00;;;;;;5032562;28;20173;-48
2023/01/23 02:07:13;;;;;;;21.83;11.65;;;6.60;48.00;;;;;;5033406;28;20178;-48
2023/01/23 02:09:40;;;;;;;16.40;10.63;;;6.60;47.90;;;;;;5033513;28;20556;-48
2023/01/23 02:12:06;;;;;;;19.50;12.13;;;6.60;47.80;;;;;;5033407;28;20176;-48
2023/01/23 02:14:32;;;;;;;23.45;13.90;;;6.60;47.90;;;;;;5033017;28;20278;-48
2023/01/23 02:17:00;;;;;;;23.77;12.88;;;6.60;47.90;;;;;;5033253;28;20272;-48
2023/01/23 02:19:58;;;;;;;20.83;12.40;;;6.60;47.90;;;;;;5033332;28;20168;-48
2023/01/23 02:22:32;;;;;;;21.15;12.25;;;6.60;47.80;;;;;;5032626;28;20629;-48
2023/01/23 02:25:33;;;;;;;14.25;10.40;;;6.60;47.80;;;;;;5032956;28;20239;-49
2023/01/23 02:28:00;;;;;;;16.45;10.70;;;6.60;47.90;;;;;;5016268;28;20287;-48
2023/01/23 02:30:26;;;;;;;18.02;11.73;;;6.60;48.00;;;;;;5032962;28;20247;-48
2023/01/23 02:32:52;;;;;;;18.02;11.02;;;6.60;47.90;;;;;;5032994;28;20174;-48
2023/01/23 02:35:30;;;;;;;19.87;10.30;;;6.60;47.90;;;;;;5032521;28;20391;-48
2023/01/23 02:38:01;;;;;;;18.25;11.15;;;6.60;47.90;;;;;;5032930;28;20166;-48
2023/01/23 02:40:31;;;;;;;18.67;11.32;;;6.60;47.90;;;;;;5032894;28;20565;-48
2023/01/23 02:42:58;;;;;;;21.10;11.90;;;6.60;47.90;;;;;;5032727;28;20634;-48
2023/01/23 02:45:24;;;;;;;18.80;9.52;;;6.60;47.90;;;;;;5032517;28;20272;-48
2023/01/23 02:47:50;;;;;;;16.27;10.25;;;6.60;47.90;;;;;;5032639;28;20592;-48
2023/01/23 02:50:16;;;;;;;19.95;13.80;;;6.60;47.80;;;;;;5032681;28;20216;-48
2023/01/23 02:52:42;;;;;;;15.65;11.25;;;6.60;47.90;;;;;;5032678;28;20170;-48
2023/01/23 02:55:08;;;;;;;16.53;10.40;;;6.60;47.80;;;;;;5032387;28;20216;-48
2023/01/23 02:57:34;;;;;;;15.80;9.87;;;6.60;47.80;;;;;;5032570;28;20249;-48
2023/01/23 03:00:15;;;;;;;22.17;12.88;;;6.60;47.80;;;;;;5032546;28;20407;-48
2023/01/23 03:02:42;;;;;;;17.80;11.10;;;6.60;47.80;;;;;;5032548;28;20157;-48
2023/01/23 03:05:08;;;;;;;18.50;10.00;;;6.60;47.80;;;;;;5032197;28;20612;-48
2023/01/23 03:07:34;;;;;;;15.23;10.75;;;6.60;47.80;;;;;;5032623;28;20150;-48
2023/01/23 03:10:01;;;;;;;19.55;10.68;;;6.60;47.80;;;;;;5032331;28;20166;-48
2023/01/23 03:12:27;;;;;;;17.27;11.20;;;6.60;47.80;;;;;;5032423;28;20743;-48
2023/01/23 03:14:54;;;;;;;22.33;11.03;;;6.60;47.70;;;;;;5031983;28;20201;-48
2023/01/23 03:17:21;;;;;;;20.60;12.55;;;6.60;47.70;;;;;;5032244;28;20630;-48
2023/01/23 03:19:47;;;;;;;17.02;10.65;;;6.60;47.70;;;;;;5032188;28;20795;-48
2023/01/23 03:22:13;;;;;;;21.50;11.57;;;6.60;47.70;;;;;;5032259;28;20188;-49
2023/01/23 03:24:40;;;;;;;19.80;11.38;;;6.60;47.70;;;;;;5031796;28;20173;-48
2023/01/23 03:27:06;;;;;;;18.10;11.48;;;6.60;47.70;;;;;;5032148;28;20170;-48
2023/01/23 03:32:16;;;;;;;21.20;12.15;;;6.60;47.60;;;;;;5032130;28;20197;-48
2023/01/23 03:34:42;;;;;;;20.27;11.20;;;6.60;47.70;;;;;;5031697;28;20201;-48
2023/01/23 03:37:10;;;;;;;21.13;11.95;;;6.60;47.70;;;;;;5032025;28;20170;-48
2023/01/23 03:42:21;;;;;;;18.13;11.70;;;6.60;47.70;;;;;;5032068;28;20695;-49
2023/01/23 03:44:47;;;;;;;19.35;12.57;;;6.60;47.60;;;;;;5031760;28;20257;-48
2023/01/23 03:47:13;;;;;;;18.90;11.13;;;6.50;47.60;;;;;;5031941;28;20163;-49
2023/01/23 03:49:39;;;;;;;20.60;12.40;;;6.50;47.70;;;;;;5031830;28;20256;-48
2023/01/23 03:52:05;;;;;;;18.93;11.73;;;6.50;47.80;;;;;;5031881;28;20824;-49
2023/01/23 03:54:31;;;;;;;20.63;12.32;;;6.50;47.70;;;;;;5031656;28;20220;-48
2023/01/23 03:56:56;;;;;;;16.60;11.80;;;6.50;47.80;;;;;;5031851;28;20670;-48
2023/01/23 03:59:22;;;;;;;18.50;11.93;;;6.50;47.80;;;;;;5031847;28;20495;-48
2023/01/23 04:01:48;;;;;;;17.80;10.50;;;6.50;47.90;;;;;;5031761;28;20170;-48
2023/01/23 04:04:14;;;;;;;19.80;12.10;;;6.50;48.00;;;;;;5031639;28;20411;-48
2023/01/23 04:06:39;;;;;;;14.30;10.53;;;6.50;48.00;;;;;;5031577;28;20217;-48
2023/01/23 04:09:05;;;;;;;20.63;10.83;;;6.50;48.00;;;;;;5031736;28;20412;-48
2023/01/23 04:11:31;;;;;;;17.90;10.93;;;6.50;47.90;;;;;;5031812;28;20515;-48
2023/01/23 04:13:57;;;;;;;24.80;13.53;;;6.50;47.90;;;;;;5053074;22;22152;-52
2023/01/23 04:16:23;;;;;;;19.60;12.00;;;6.50;48.00;;;;;;5031003;28;20181;-51
2023/01/23 04:18:50;;;;;;;21.65;11.70;;;6.50;47.90;;;;;;5031636;28;20412;-52
2023/01/23 04:21:16;;;;;;;19.38;10.98;;;6.50;47.90;;;;;;5031650;28;20189;-52
2023/01/23 04:23:41;;;;;;;17.85;11.00;;;6.60;47.90;;;;;;5031546;28;20536;-52
2023/01/23 04:26:07;;;;;;;21.13;12.80;;;6.60;47.90;;;;;;5031356;28;20181;-52
2023/01/23 04:28:33;;;;;;;17.20;11.17;;;6.50;47.90;;;;;;5031569;28;20625;-50
2023/01/23 04:30:59;;;;;;;16.30;10.90;;;6.60;47.90;;;;;;5031528;28;20174;-51
2023/01/23 04:33:24;;;;;;;20.97;11.47;;;6.60;47.90;;;;;;5031419;28;20174;-52
2023/01/23 04:35:53;;;;;;;17.17;10.20;;;6.60;47.80;;;;;;5031506;28;20194;-52
2023/01/23 04:38:20;;;;;;;19.25;12.70;;;6.60;47.80;;;;;;5031445;28;20181;-52
2023/01/23 04:40:46;;;;;;;15.57;9.85;;;6.60;47.80;;;;;;5031376;28;20174;-51
2023/01/23 04:43:12;;;;;;;16.88;10.52;;;6.60;47.80;;;;;;5031445;28;20189;-52
2023/01/23 04:45:38;;;;;;;18.30;10.87;;;6.60;47.80;;;;;;5034504;28;20240;-52
2023/01/23 04:48:04;;;;;;;17.10;10.60;;;6.60;47.70;;;;;;5034879;28;20400;-52
2023/01/23 04:50:31;;;;;;;20.30;9.55;;;6.60;47.70;;;;;;5034920;28;20174;-52
2023/01/23 04:52:57;;;;;;;21.27;11.43;;;6.60;47.80;;;;;;5035143;28;20180;-52
2023/01/23 04:55:23;;;;;;;18.92;12.52;;;6.60;47.80;;;;;;5034443;28;20205;-52
2023/01/23 04:57:50;;;;;;;19.98;11.05;;;6.60;47.80;;;;;;5034952;28;20193;-52
2023/01/23 05:00:16;;;;;;;16.73;10.93;;;6.60;47.80;;;;;;5034774;28;20170;-50
2023/01/23 05:02:44;;;;;;;22.60;13.63;;;6.60;47.80;;;;;;5034615;28;20672;-51
2023/01/23 05:05:11;;;;;;;17.88;11.52;;;6.60;47.80;;;;;;5034352;28;20197;-51
2023/01/23 05:07:37;;;;;;;18.83;12.05;;;6.60;47.70;;;;;;5034648;28;20182;-52
2023/01/23 05:10:04;;;;;;;17.58;12.32;;;6.60;47.70;;;;;;5034746;28;20573;-52
2023/01/23 05:12:29;;;;;;;22.67;12.95;;;6.60;47.60;;;;;;5034462;28;20169;-52
2023/01/23 05:14:55;;;;;;;20.43;13.47;;;6.60;47.60;;;;;;5034057;28;20273;-52
2023/01/23 05:17:21;;;;;;;19.97;14.00;;;6.60;47.70;;;;;;5034395;28;20709;-52
2023/01/23 05:19:47;;;;;;;19.67;12.67;;;6.60;47.70;;;;;;5034486;28;20175;-52
2023/01/23 05:22:12;;;;;;;23.20;13.63;;;6.60;47.80;;;;;;5034572;28;20405;-52
2023/01/23 05:24:38;;;;;;;26.70;13.27;;;6.60;47.80;;;;;;5033906;28;20198;-52
2023/01/23 05:27:04;;;;;;;23.90;15.13;;;6.60;47.80;;;;;;5034567;28;20174;-52
2023/01/23 05:29:30;;;;;;;22.83;14.13;;;6.50;47.80;;;;;;5034385;28;20174;-52
2023/01/23 05:31:58;;;;;;;24.10;12.60;;;6.50;47.90;;;;;;5034359;28;20405;-52
2023/01/23 05:34:24;;;;;;;20.20;13.07;;;6.50;48.00;;;;;;5033676;28;20531;-51
2023/01/23 05:36:50;;;;;;;22.10;14.07;;;6.50;48.00;;;;;;5034239;28;20206;-52
2023/01/23 05:39:16;;;;;;;20.10;12.50;;;6.50;48.00;;;;;;5034009;28;20189;-52
2023/01/23 05:41:41;;;;;;;22.67;13.33;;;6.50;48.00;;;;;;5034212;28;20185;-52
2023/01/23 05:44:07;;;;;;;22.07;12.60;;;6.60;47.90;;;;;;5033965;28;20667;-52
2023/01/23 05:46:33;;;;;;;21.77;13.03;;;6.60;47.90;;;;;;5033614;28;20181;-52
2023/01/23 05:48:58;;;;;;;23.87;14.90;;;6.60;47.80;;;;;;5033801;28;20177;-50
2023/01/23 05:51:31;;;;;;;23.23;13.70;;;6.60;47.80;;;;;;5034139;28;20201;-52
2023/01/23 05:53:57;;;;;;;23.83;13.73;;;6.60;47.90;;;;;;5033792;28;20267;-51
2023/01/23 05:56:23;;;;;;;21.98;13.43;;;6.60;47.90;;;;;;5032539;28;20178;-51
2023/01/23 05:58:49;;;;;;;24.20;15.75;;;6.60;47.90;;;;;;5033752;28;20197;-52
2023/01/23 06:01:15;;;;;;;20.43;13.00;;;6.60;47.90;;;;;;5033822;28;20201;-52
2023/01/23 06:03:41;;;;;;;23.83;14.63;;;6.60;47.90;;;;;;5033385;28;20396;-51
2023/01/23 06:06:06;;;;;;;26.27;15.30;;;6.60;47.80;;;;;;5033212;28;20462;-52
2023/01/23 06:08:32;;;;;;;31.53;17.10;;;6.60;48.00;;;;;;5033363;28;20818;-52
2023/01/23 06:10:58;;;;;;;26.30;15.90;;;6.60;47.90;;;;;;5033692;28;20412;-52
2023/01/23 06:13:25;;;;;;;30.77;15.77;;;6.60;47.80;;;;;;5032010;28;20174;-51
2023/01/23 06:15:52;;;;;;;27.10;17.10;;;6.60;47.80;;;;;;5032877;28;20221;-51
2023/01/23 06:18:18;;;;;;;26.85;16.25;;;6.60;47.90;;;;;;5033120;28;20170;-51
2023/01/23 06:20:43;;;;;;;25.67;15.70;;;6.60;47.90;;;;;;5033061;28;20189;-52
2023/01/23 06:23:09;;;;;;;28.43;16.80;;;6.60;47.90;;;;;;5033134;28;20415;-52
2023/01/23 06:25:36;;;;;;;32.50;17.67;;;6.60;47.90;;;;;;5032753;28;20469;-52
2023/01/23 06:28:01;;;;;;;30.85;15.38;;;6.60;47.90;;;;;;5033207;28;20182;-50
2023/01/23 06:30:27;;;;;;;30.13;17.20;;;6.60;47.90;;;;;;5032968;28;20181;-51
2023/01/23 06:32:53;;;;;;;28.13;15.37;;;6.60;47.90;;;;;;5033006;28;20169;-49
2023/01/23 06:35:19;;;;;;;26.77;13.93;;;6.60;47.90;;;;;;5032874;28;20610;-50
2023/01/23 06:37:44;;;;;;;28.97;14.83;;;6.60;47.90;;;;;;5032828;28;20192;-52
2023/01/23 06:40:14;;;;;;;32.40;16.50;;;6.60;47.90;;;;;;5032953;28;20198;-52
2023/01/23 06:42:41;;;;;;;32.38;15.70;;;6.60;48.00;;;;;;5032995;28;20173;-51
2023/01/23 06:45:08;;;;;;;28.60;15.20;;;6.60;48.00;;;;;;5032351;28;20262;-52
2023/01/23 06:47:35;;;;;;;28.15;15.57;;;6.60;48.00;;;;;;5032882;28;20260;-51
2023/01/23 06:50:01;;;;;;;28.80;15.38;;;6.60;48.00;;;;;;5032650;28;20166;-52
2023/01/23 06:52:27;;;;;;;29.48;16.70;;;6.60;47.90;;;;;;5032827;28;20180;-51
2023/01/23 06:54:53;;;;;;;29.25;17.40;;;6.60;47.90;;;;;;5032557;28;20237;-51
2023/01/23 06:57:19;;;;;;;24.17;14.80;;;6.90;48.00;;;;;;5032674;28;20634;-51
2023/01/23 06:59:44;;;;;;;36.80;18.70;;;6.60;47.80;;;;;;5032392;28;20405;-52
2023/01/23 07:02:11;;;;;;;24.10;14.67;;;6.60;48.00;;;;;;5032547;28;20174;-51
2023/01/23 07:04:36;;;;;;;25.10;14.77;;;6.60;47.90;;;;;;5032340;28;20222;-51
2023/01/23 07:07:05;;;;;;;36.20;17.53;;;6.60;47.90;;;;;;5032253;28;20209;-51
2023/01/23 07:09:31;;;;;;;21.52;13.95;;;6.60;47.90;;;;;;5032375;28;20297;-52
2023/01/23 07:11:57;;;;;;;24.93;15.10;;;6.60;48.00;;;;;;5032320;28;20181;-52
2023/01/23 07:14:23;;;;;;;26.20;15.03;;;6.60;48.00;;;;;;5031913;28;20519;-51
2023/01/23 07:16:48;;;;;;;22.63;14.07;;;6.60;48.00;;;;;;5032483;28;20413;-52
2023/01/23 07:19:14;;;;;;;27.13;15.97;;;6.60;48.00;;;;;;5032141;28;20177;-51
2023/01/23 07:21:40;;;;;;;29.93;17.20;;;6.60;47.90;;;;;;5032088;28;20625;-52
2023/01/23 07:24:06;;;;;;;26.27;16.03;;;6.60;47.90;;;;;;5032402;28;20225;-52
2023/01/23 07:26:32;;;;;;;27.48;15.43;;;6.60;47.90;;;;;;5031908;28;20220;-52
2023/01/23 07:28:58;;;;;;;24.83;15.65;;;6.60;47.90;;;;;;5032301;28;20228;-52
2023/01/23 07:31:24;;;;;;;31.00;17.50;;;6.70;48.00;;;;;;5032101;28;20182;-52
2023/01/23 07:33:50;;;;;;;26.83;15.30;;;6.60;47.90;;;;;;5032089;28;20624;-52
2023/01/23 07:36:17;;;;;;;28.08;17.20;;;6.70;48.00;;;;;;5031808;28;20634;-52
2023/01/23 07:38:43;;;;;;;31.45;17.50;;;6.70;48.00;;;;;;5032089;28;20231;-52
2023/01/23 07:41:08;;;;;;;28.83;17.10;;;6.70;48.00;;;;;;5032067;28;20169;-51
2023/01/23 07:43:34;;;;;;;30.27;17.20;;;6.70;48.00;;;;;;5031901;28;20931;-52
2023/01/23 07:46:01;;;;;;;32.87;18.07;;;6.70;48.00;;;;;;5031761;28;20174;-52
2023/01/23 07:48:28;;;;;;;27.45;15.93;;;6.70;48.00;;;;;;5031787;28;20189;-51
2023/01/23 07:50:54;;;;;;;26.60;16.00;;;6.80;47.90;;;;;;5031848;28;20645;-52
2023/01/23 07:53:20;;;;;;;28.73;15.25;;;6.80;47.90;;;;;;5032070;28;20170;-52
2023/01/23 07:55:46;;;;;;;29.95;14.20;;;6.80;48.00;;;;;;5031524;28;20292;-51
2023/01/23 07:58:11;;;;;;;25.73;15.93;;;6.80;47.90;;;;;;5031805;28;20196;-51
2023/01/23 08:00:38;;;;;;;24.93;15.97;;;6.80;47.80;;;;;;5031804;28;20455;-50
2023/01/23 08:03:04;;;;;;;24.15;16.25;;;6.80;47.80;;;;;;5031969;28;20240;-52
2023/01/23 08:05:29;;;;;;;29.90;16.10;;;6.80;47.80;;;;;;5031776;28;20194;-52
2023/01/23 08:07:55;;;;;;;31.13;17.10;;;6.80;47.90;;;;;;5031699;28;20409;-50
2023/01/23 08:10:21;;;;;;;27.70;17.53;;;6.80;47.80;;;;;;5032080;28;20178;-52
2023/01/23 08:12:47;;;;;;;21.87;14.00;;;6.90;48.00;;;;;;5031708;28;20174;-51
2023/01/23 08:15:12;;;;;;;29.27;16.83;;;6.80;47.90;;;;;;5031273;28;20593;-52
2023/01/23 08:17:38;;;;;;;30.97;17.57;;;6.80;47.90;;;;;;5031705;28;20525;-52
2023/01/23 08:20:04;;;;;;;28.77;16.87;;;6.90;47.90;;;;;;5034120;28;20185;-52
2023/01/23 08:22:30;;;;;;;27.88;16.05;;;6.90;47.90;;;;;;5035683;28;20170;-52
2023/01/23 08:24:56;;;;;;;23.93;16.77;;;6.90;47.90;;;;;;5035450;28;20573;-54
2023/01/23 08:27:21;;;;;;;28.23;16.77;;;6.90;47.80;;;;;;5035558;28;20185;-51
2023/01/23 08:29:47;;;;;;;26.27;16.27;;;6.90;47.90;;;;;;5035438;28;20257;-51
2023/01/23 08:32:13;;;;;;;30.53;17.03;;;6.90;47.90;;;;;;5035224;28;20203;-51
2023/01/23 08:34:38;;;;;;;28.13;16.67;;;7.00;47.90;;;;;;5034888;28;20307;-51
2023/01/23 08:37:04;;;;;;;24.57;16.93;;;7.00;47.90;;;;;;5035152;28;20170;-51
2023/01/23 08:39:30;;;;;;;33.17;18.17;;;7.00;47.80;;;;;;5035323;28;20260;-50
2023/01/23 08:41:56;;;;;;;29.40;17.60;;;7.00;47.80;;;;;;5035291;28;20530;-51
2023/01/23 08:44:23;;;;;;;33.43;17.70;;;7.00;47.80;;;;;;5034836;28;20919;-51
2023/01/23 08:46:49;;;;;;;29.05;15.85;;;7.10;47.80;;;;;;5035235;28;20190;-51
2023/01/23 08:49:18;;;;;;;28.97;18.17;;;7.00;47.80;;;;;;5034833;28;20247;-51
2023/01/23 08:51:44;;;;;;;30.75;15.85;;;7.00;47.80;;;;;;5035055;28;20535;-52
2023/01/23 08:54:09;;;;;;;32.10;18.07;;;7.10;47.80;;;;;;5034731;28;20210;-52
2023/01/23 08:56:35;;;;;;;28.40;16.50;;;7.00;47.70;;;;;;5034629;28;20178;-51
2023/01/23 08:59:01;;;;;;;28.17;17.47;;;7.00;47.70;;;;;;5034744;28;20625;-50
2023/01/23 09:01:27;;;;;;;31.47;17.20;;;7.00;47.80;;;;;;5034753;28;20220;-50
2023/01/23 09:03:53;;;;;;;33.13;16.92;;;7.00;47.70;;;;;;5034877;28;20200;-50
2023/01/23 09:06:21;;;;;;;33.33;18.10;;;7.00;47.80;;;;;;5034373;28;20186;-50
2023/01/23 09:08:47;;;;;;;27.55;17.58;;;7.00;47.80;;;;;;5034567;28;20182;-50
2023/01/23 09:11:13;;;;;;;38.47;18.90;;;7.00;47.80;;;;;;5034479;28;20185;-49
2023/01/23 09:13:40;;;;;;;38.17;18.23;;;7.00;47.80;;;;;;5034072;28;20174;-50
2023/01/23 09:16:07;;;;;;;35.00;18.33;;;7.00;47.90;;;;;;5034252;28;20324;-50
2023/01/23 09:18:33;;;;;;;35.28;19.83;;;7.00;48.00;;;;;;5034676;28;20182;-50
2023/01/23 09:20:59;;;;;;;31.75;17.35;;;7.00;48.00;;;;;;5034320;28;20188;-50
2023/01/23 09:23:25;;;;;;;33.53;18.70;;;7.10;48.00;;;;;;5034564;28;20253;-50
2023/01/23 09:25:50;;;;;;;27.33;15.87;;;7.10;47.80;;;;;;5033957;28;20804;-50
2023/01/23 09:28:16;;;;;;;35.73;18.50;;;7.10;47.80;;;;;;5034414;28;20795;-50
2023/01/23 09:30:42;;;;;;;30.20;17.27;;;7.10;47.90;;;;;;5034209;28;20432;-50
2023/01/23 09:33:08;;;;;;;24.63;16.03;;;7.10;47.90;;;;;;5034375;28;20666;-50
2023/01/23 09:35:33;;;;;;;27.60;16.60;;;7.10;47.90;;;;;;5033958;28;20221;-50
2023/01/23 09:38:00;;;;;;;31.00;18.17;;;7.10;48.00;;;;;;5034317;28;20170;-50
2023/01/23 09:40:35;;;;;;;33.47;19.15;;;7.10;47.90;;;;;;5034022;28;20443;-50
2023/01/23 09:43:31;;;;;;;30.30;16.83;;;7.20;47.80;;;;;;5033950;28;20166;-50
2023/01/23 09:46:14;;;;;;;27.70;16.92;;;7.20;48.40;;;;;;5033603;28;20245;-50
2023/01/23 09:48:52;;;;;;;33.25;18.38;;;7.20;47.70;;;;;;5034127;28;20174;-50
2023/01/23 09:51:40;;;;;;;36.25;17.38;;;7.20;47.70;;;;;;5033840;28;20178;-50
2023/01/23 09:54:45;;;;;;;29.30;16.58;;;7.10;47.80;;;;;;5033665;28;20284;-50
2023/01/23 09:57:19;;;;;;;29.55;17.30;;;7.20;47.80;;;;;;5033626;28;20796;-50
2023/01/23 09:59:59;;;;;;;34.60;18.63;;;7.10;47.80;;;;;;5033785;28;20222;-51
2023/01/23 10:02:25;;;;;;;32.53;18.85;;;7.10;47.80;;;;;;5033804;28;20551;-50
2023/01/23 10:04:52;;;;;;;33.40;19.83;;;7.10;47.90;;;;;;5033385;28;20209;-50
2023/01/23 10:07:29;;;;;;;29.33;17.75;;;7.10;48.00;;;;;;5033488;28;20994;-50
2023/01/23 10:10:20;;;;;;;37.60;18.50;;;7.20;48.10;;;;;;5033252;28;20273;-51
2023/01/23 10:12:54;;;;;;;27.98;16.90;;;7.20;47.90;;;;;;5033679;28;20174;-50
2023/01/23 10:16:04;;;;;;;31.73;16.33;;;7.20;47.80;;;;;;5032828;28;20620;-49
2023/01/23 10:18:39;;;;;;;25.40;14.75;;;7.20;47.70;;;;;;5022922;28;20182;-49
2023/01/23 10:21:28;;;;;;;29.73;18.48;;;7.20;47.70;;;;;;5033490;28;20161;-50
2023/01/23 10:24:26;;;;;;;29.45;17.05;;;6.30;47.40;;;;;;5032986;28;20673;-50
2023/01/23 10:26:57;;;;;;;58.92;34.50;;;7.20;47.80;;;;;;5032966;28;20596;-50
2023/01/23 10:29:37;;;;;;;81.15;44.63;;;7.20;47.90;;;;;;5033156;28;20273;-49
2023/01/23 10:32:13;;;;;;;35.50;21.90;;;7.20;47.90;;;;;;5033180;28;20291;-51
2023/01/23 10:34:53;;;;;;;27.60;19.08;;;7.20;47.90;;;;;;5032916;28;20205;-50
2023/01/23 10:37:24;;;;;;;26.58;15.80;;;7.20;47.80;;;;;;5033241;28;20177;-50
2023/01/23 10:43:20;;;;;;;27.65;15.55;;;7.30;47.80;;;;;;5029694;28;20181;-50
2023/01/23 10:45:47;;;;;;;25.67;15.07;;;7.30;47.90;;;;;;5032496;28;20277;-50
2023/01/23 10:48:32;;;;;;;27.30;15.27;;;7.30;47.70;;;;;;5032961;28;20186;-50
2023/01/23 10:50:59;;;;;;;27.75;19.15;;;7.30;47.70;;;;;;5032660;28;20711;-50
2023/01/23 10:53:25;;;;;;;30.35;17.60;;;7.30;47.70;;;;;;5032648;28;20208;-50
2023/01/23 10:55:59;;;;;;;30.70;18.00;;;7.30;47.80;;;;;;5032471;28;20260;-49
2023/01/23 10:58:39;;;;;;;24.60;16.05;;;7.40;47.80;;;;;;5032748;28;20208;-50
2023/01/23 11:01:22;;;;;;;28.88;16.50;;;7.40;47.80;;;;;;5032778;28;20164;-50
2023/01/23 11:03:47;;;;;;;26.40;16.45;;;7.40;47.60;;;;;;5032508;28;20182;-50
2023/01/23 11:06:19;;;;;;;21.10;15.50;;;7.40;47.30;;;;;;5030893;28;20507;-50
2023/01/23 11:09:03;;;;;;;34.58;20.65;;;7.50;47.50;;;;;;5032315;28;20205;-50
2023/01/23 11:11:32;;;;;;;26.42;18.02;;;7.40;47.30;;;;;;5032333;28;20232;-49
2023/01/23 11:14:14;;;;;;;28.17;16.05;;;7.40;47.30;;;;;;5032057;28;20217;-50
2023/01/23 11:16:39;;;;;;;27.00;16.90;;;7.40;47.30;;;;;;5032008;28;20223;-50
2023/01/23 11:19:08;;;;;;;29.00;16.80;;;7.40;47.50;;;;;;5032414;28;20177;-50
2023/01/23 11:21:55;;;;;;;26.45;15.55;;;7.40;47.50;;;;;;5032534;28;20404;-50
2023/01/23 11:24:32;;;;;;;26.00;18.13;;;7.40;47.50;;;;;;5031494;28;20558;-50
2023/01/23 11:27:14;;;;;;;40.35;20.40;;;7.50;47.50;;;;;;5032011;28;20174;-50
2023/01/23 11:30:07;;;;;;;25.98;16.83;;;7.50;47.30;;;;;;5032422;28;20177;-50
2023/01/23 11:32:41;;;;;;;29.95;18.08;;;7.50;47.00;;;;;;5032292;28;20206;-50
2023/01/23 11:35:46;;;;;;;27.25;16.73;;;7.50;47.30;;;;;;5031793;28;20206;-50
2023/01/23 11:38:19;;;;;;;29.15;17.50;;;7.50;47.30;;;;;;5031898;28;20327;-50
2023/01/23 11:40:46;;;;;;;28.70;16.73;;;7.50;47.50;;;;;;5032102;28;20182;-50
2023/01/23 11:43:15;;;;;;;31.33;17.85;;;7.50;47.60;;;;;;5032037;28;20174;-50
2023/01/23 11:45:56;;;;;;;42.53;19.15;;;7.60;47.30;;;;;;5031646;28;20221;-51
2023/01/23 11:48:31;;;;;;;36.60;20.45;;;7.60;47.20;;;;;;5031974;28;20227;-50
2023/01/23 11:51:12;;;;;;;30.55;17.80;;;7.60;47.20;;;;;;5031930;28;20649;-50
2023/01/23 11:53:50;;;;;;;32.45;18.23;;;7.60;47.20;;;;;;5033624;28;20265;-51
2023/01/23 11:56:20;;;;;;;30.88;17.27;;;7.60;47.40;;;;;;5035697;28;20675;-50
2023/01/23 11:59:01;;;;;;;35.95;18.58;;;7.60;47.30;;;;;;5036155;28;20259;-50
2023/01/23 12:01:35;;;;;;;38.03;17.25;;;7.60;47.20;;;;;;5036061;28;20174;-50
2023/01/23 12:04:01;;;;;;;34.53;19.27;;;7.60;47.30;;;;;;5036007;28;20258;-50
2023/01/23 12:06:36;;;;;;;30.87;18.17;;;7.60;47.10;;;;;;5035595;28;20638;-50
2023/01/23 12:09:15;;;;;;;33.20;19.55;;;7.50;47.30;;;;;;5035865;28;20181;-50
2023/01/23 12:11:54;;;;;;;33.90;20.23;;;7.50;47.30;;;;;;5035658;28;20173;-50
2023/01/23 12:14:53;;;;;;;29.55;17.30;;;7.60;47.40;;;;;;5035434;28;20217;-51
2023/01/23 12:17:41;;;;;;;32.38;17.83;;;7.60;47.20;;;;;;5035516;28;20210;-53
2023/01/23 12:20:42;;;;;;;34.20;19.27;;;7.60;46.90;;;;;;5035854;28;20253;-52
2023/01/23 12:23:20;;;;;;;29.77;16.60;;;7.50;47.10;;;;;;5035375;28;20534;-52
2023/01/23 12:26:09;;;;;;;35.88;19.83;;;7.50;47.30;;;;;;5035373;28;20204;-50
2023/01/23 12:28:53;;;;;;;29.73;18.48;;;7.50;47.30;;;;;;5029682;28;20224;-52
2023/01/23 12:31:39;;;;;;;32.45;19.40;;;7.50;47.40;;;;;;5035594;28;20211;-50
2023/01/23 12:34:23;;;;;;;30.17;17.20;;;7.50;47.30;;;;;;5035132;28;20731;-53
2023/01/23 12:37:29;;;;;;;32.97;18.27;;;7.50;47.40;;;;;;5035483;28;20174;-52
2023/01/23 12:40:31;;;;;;;34.38;18.65;;;7.50;47.40;;;;;;5033412;28;20189;-52
2023/01/23 12:43:31;;;;;;;34.33;19.88;;;7.50;47.30;;;;;;5035380;28;20158;-53
2023/01/23 12:46:04;;;;;;;32.45;19.17;;;7.50;47.30;;;;;;5034825;28;20657;-52
2023/01/23 12:48:38;;;;;;;30.10;18.10;;;7.50;47.40;;;;;;5035057;28;20565;-53
2023/01/23 12:51:35;;;;;;;35.33;18.60;;;7.50;47.30;;;;;;5035263;28;20162;-52
2023/01/23 12:54:05;;;;;;;30.83;17.25;;;7.50;47.20;;;;;;5034115;28;20297;-52
2023/01/23 12:56:34;;;;;;;27.70;17.60;;;7.40;47.20;;;;;;5034612;28;20638;-52
2023/01/23 12:59:18;;;;;;;33.92;20.13;;;7.40;47.30;;;;;;5034843;28;20193;-53
2023/01/23 13:02:13;;;;;;;31.45;18.23;;;7.40;47.30;;;;;;5034771;28;20162;-52